sensor_id;sensor_type;location;lat;lon;timestamp;temperature;humidity
77839;SHT31;67034;43.226;27.932;2023-02-24T00:01:12;6.48;77.19
77839;SHT31;67034;43.226;27.932;2023-02-24T00:03:42;6.50;76.87
77839;SHT31;67034;43.226;27.932;2023-02-24T00:06:09;6.41;77.38
77839;SHT31;67034;43.226;27.932;2023-02-24T00:08:37;6.37;77.61
77839;SHT31;67034;43.226;27.932;2023-02-24T00:11:08;6.31;77.70
77839;SHT31;67034;43.226;27.932;2023-02-24T00:13:34;6.39;77.36
77839;SHT31;67034;43.226;27.932;2023-02-24T00:15:59;6.45;77.14
77839;SHT31;67034;43.226;27.932;2023-02-24T00:18:26;6.50;77.04
77839;SHT31;67034;43.226;27.932;2023-02-24T00:20:52;6.42;77.21
77839;SHT31;67034;43.226;27.932;2023-02-24T00:23:21;6.41;77.39
77839;SHT31;67034;43.226;27.932;2023-02-24T00:25:48;6.29;77.92
77839;SHT31;67034;43.226;27.932;2023-02-24T00:28:15;6.38;77.86
77839;SHT31;67034;43.226;27.932;2023-02-24T00:30:40;6.31;78.06
77839;SHT31;67034;43.226;27.932;2023-02-24T00:33:08;6.29;78.20
77839;SHT31;67034;43.226;27.932;2023-02-24T00:35:36;6.42;78.12
77839;SHT31;67034;43.226;27.932;2023-02-24T00:38:02;6.37;78.22
77839;SHT31;67034;43.226;27.932;2023-02-24T00:40:27;6.37;78.23
77839;SHT31;67034;43.226;27.932;2023-02-24T00:42:54;6.45;78.16
77839;SHT31;67034;43.226;27.932;2023-02-24T00:45:21;6.55;77.96
77839;SHT31;67034;43.226;27.932;2023-02-24T00:47:47;6.49;77.94
77839;SHT31;67034;43.226;27.932;2023-02-24T00:50:12;6.46;78.30
77839;SHT31;67034;43.226;27.932;2023-02-24T00:52:38;6.52;77.83
77839;SHT31;67034;43.226;27.932;2023-02-24T00:55:04;6.48;77.64
77839;SHT31;67034;43.226;27.932;2023-02-24T00:57:38;6.49;77.28
77839;SHT31;67034;43.226;27.932;2023-02-24T01:00:05;6.50;77.27
77839;SHT31;67034;43.226;27.932;2023-02-24T01:02:38;6.46;77.26
77839;SHT31;67034;43.226;27.932;2023-02-24T01:05:05;6.37;77.54
77839;SHT31;67034;43.226;27.932;2023-02-24T01:07:30;6.37;77.08
77839;SHT31;67034;43.226;27.932;2023-02-24T01:09:56;6.13;77.83
77839;SHT31;67034;43.226;27.932;2023-02-24T01:12:22;6.20;77.98
77839;SHT31;67034;43.226;27.932;2023-02-24T01:15:04;6.27;77.74
77839;SHT31;67034;43.226;27.932;2023-02-24T01:17:34;6.21;77.96
77839;SHT31;67034;43.226;27.932;2023-02-24T01:20:02;6.03;78.61
77839;SHT31;67034;43.226;27.932;2023-02-24T01:22:40;6.06;78.59
77839;SHT31;67034;43.226;27.932;2023-02-24T01:25:06;6.01;78.53
77839;SHT31;67034;43.226;27.932;2023-02-24T01:27:33;5.98;78.59
77839;SHT31;67034;43.226;27.932;2023-02-24T01:30:01;6.00;78.48
77839;SHT31;67034;43.226;27.932;2023-02-24T01:32:29;5.90;79.05
77839;SHT31;67034;43.226;27.932;2023-02-24T01:34:56;5.80;79.37
77839;SHT31;67034;43.226;27.932;2023-02-24T01:37:23;5.85;79.31
77839;SHT31;67034;43.226;27.932;2023-02-24T01:39:49;5.83;79.30
77839;SHT31;67034;43.226;27.932;2023-02-24T01:42:17;5.73;79.72
77839;SHT31;67034;43.226;27.932;2023-02-24T01:45:12;5.65;80.11
77839;SHT31;67034;43.226;27.932;2023-02-24T01:47:38;5.58;80.57
77839;SHT31;67034;43.226;27.932;2023-02-24T01:50:07;5.55;80.87
77839;SHT31;67034;43.226;27.932;2023-02-24T01:52:36;5.60;80.56
77839;SHT31;67034;43.226;27.932;2023-02-24T01:55:06;5.58;80.56
77839;SHT31;67034;43.226;27.932;2023-02-24T01:57:35;5.53;80.81
77839;SHT31;67034;43.226;27.932;2023-02-24T02:00:04;5.46;81.37
77839;SHT31;67034;43.226;27.932;2023-02-24T02:02:35;5.45;81.71
77839;SHT31;67034;43.226;27.932;2023-02-24T02:05:05;5.43;81.04
77839;SHT31;67034;43.226;27.932;2023-02-24T02:07:36;5.29;81.78
77839;SHT31;67034;43.226;27.932;2023-02-24T02:10:04;5.32;82.18
77839;SHT31;67034;43.226;27.932;2023-02-24T02:12:36;5.19;82.55
77839;SHT31;67034;43.226;27.932;2023-02-24T02:15:04;5.15;82.24
77839;SHT31;67034;43.226;27.932;2023-02-24T02:17:35;5.01;83.10
77839;SHT31;67034;43.226;27.932;2023-02-24T02:20:39;5.04;82.82
77839;SHT31;67034;43.226;27.932;2023-02-24T02:29:50;5.08;82.59
77839;SHT31;67034;43.226;27.932;2023-02-24T02:32:37;5.04;82.69
77839;SHT31;67034;43.226;27.932;2023-02-24T02:35:09;5.01;82.76
77839;SHT31;67034;43.226;27.932;2023-02-24T02:37:43;4.98;82.99
77839;SHT31;67034;43.226;27.932;2023-02-24T02:40:17;5.00;83.15
77839;SHT31;67034;43.226;27.932;2023-02-24T02:42:53;4.91;82.99
77839;SHT31;67034;43.226;27.932;2023-02-24T02:45:26;4.87;83.48
77839;SHT31;67034;43.226;27.932;2023-02-24T02:47:58;4.81;84.08
77839;SHT31;67034;43.226;27.932;2023-02-24T02:50:28;4.76;83.98
77839;SHT31;67034;43.226;27.932;2023-02-24T02:52:59;4.74;84.10
77839;SHT31;67034;43.226;27.932;2023-02-24T02:55:32;4.73;84.55
77839;SHT31;67034;43.226;27.932;2023-02-24T02:58:02;4.76;84.11
77839;SHT31;67034;43.226;27.932;2023-02-24T03:00:34;4.74;84.04
77839;SHT31;67034;43.226;27.932;2023-02-24T03:03:07;4.79;84.26
77839;SHT31;67034;43.226;27.932;2023-02-24T03:05:40;4.77;84.18
77839;SHT31;67034;43.226;27.932;2023-02-24T03:08:12;4.67;84.51
77839;SHT31;67034;43.226;27.932;2023-02-24T03:10:40;4.74;84.18
77839;SHT31;67034;43.226;27.932;2023-02-24T03:13:09;4.74;84.39
77839;SHT31;67034;43.226;27.932;2023-02-24T03:15:39;4.69;84.25
77839;SHT31;67034;43.226;27.932;2023-02-24T03:18:11;4.69;84.49
77839;SHT31;67034;43.226;27.932;2023-02-24T03:20:41;4.70;84.43
77839;SHT31;67034;43.226;27.932;2023-02-24T03:23:12;4.57;84.65
77839;SHT31;67034;43.226;27.932;2023-02-24T03:25:41;4.61;84.31
77839;SHT31;67034;43.226;27.932;2023-02-24T03:28:14;4.59;84.16
77839;SHT31;67034;43.226;27.932;2023-02-24T03:30:45;4.56;84.53
77839;SHT31;67034;43.226;27.932;2023-02-24T03:33:18;4.56;84.35
77839;SHT31;67034;43.226;27.932;2023-02-24T03:35:47;4.56;84.34
77839;SHT31;67034;43.226;27.932;2023-02-24T03:38:16;4.53;84.28
77839;SHT31;67034;43.226;27.932;2023-02-24T03:40:42;4.52;84.36
77839;SHT31;67034;43.226;27.932;2023-02-24T03:43:13;4.53;84.29
77839;SHT31;67034;43.226;27.932;2023-02-24T03:45:41;4.52;84.32
77839;SHT31;67034;43.226;27.932;2023-02-24T03:48:08;4.53;84.18
77839;SHT31;67034;43.226;27.932;2023-02-24T03:50:35;4.57;84.29
77839;SHT31;67034;43.226;27.932;2023-02-24T03:53:12;4.54;84.08
77839;SHT31;67034;43.226;27.932;2023-02-24T03:55:46;4.54;84.02
77839;SHT31;67034;43.226;27.932;2023-02-24T03:58:17;4.56;84.10
77839;SHT31;67034;43.226;27.932;2023-02-24T04:00:46;4.52;84.00
77839;SHT31;67034;43.226;27.932;2023-02-24T04:03:21;4.59;83.78
77839;SHT31;67034;43.226;27.932;2023-02-24T04:05:56;4.53;83.86
77839;SHT31;67034;43.226;27.932;2023-02-24T04:08:27;4.59;83.79
77839;SHT31;67034;43.226;27.932;2023-02-24T04:11:00;4.61;83.56
77839;SHT31;67034;43.226;27.932;2023-02-24T04:13:34;4.54;83.62
77839;SHT31;67034;43.226;27.932;2023-02-24T04:16:04;4.45;84.46
77839;SHT31;67034;43.226;27.932;2023-02-24T04:18:33;4.56;83.88
77839;SHT31;67034;43.226;27.932;2023-02-24T04:21:02;4.49;84.09
77839;SHT31;67034;43.226;27.932;2023-02-24T04:23:31;4.56;83.78
77839;SHT31;67034;43.226;27.932;2023-02-24T04:25:59;4.52;83.79
77839;SHT31;67034;43.226;27.932;2023-02-24T04:28:26;4.59;83.62
77839;SHT31;67034;43.226;27.932;2023-02-24T04:30:57;4.49;83.58
77839;SHT31;67034;43.226;27.932;2023-02-24T04:33:23;4.50;83.98
77839;SHT31;67034;43.226;27.932;2023-02-24T04:35:50;4.49;83.98
77839;SHT31;67034;43.226;27.932;2023-02-24T04:38:16;4.48;84.12
77839;SHT31;67034;43.226;27.932;2023-02-24T04:40:43;4.53;83.96
77839;SHT31;67034;43.226;27.932;2023-02-24T04:43:09;4.60;83.66
77839;SHT31;67034;43.226;27.932;2023-02-24T04:45:35;4.56;83.76
77839;SHT31;67034;43.226;27.932;2023-02-24T04:48:04;4.64;83.46
77839;SHT31;67034;43.226;27.932;2023-02-24T04:50:38;4.63;83.50
77839;SHT31;67034;43.226;27.932;2023-02-24T04:53:06;4.53;83.93
77839;SHT31;67034;43.226;27.932;2023-02-24T04:55:35;4.59;83.93
77839;SHT31;67034;43.226;27.932;2023-02-24T04:58:06;4.48;84.04
77839;SHT31;67034;43.226;27.932;2023-02-24T05:00:32;4.61;83.96
77839;SHT31;67034;43.226;27.932;2023-02-24T05:03:01;4.54;84.13
77839;SHT31;67034;43.226;27.932;2023-02-24T05:05:27;4.54;84.37
77839;SHT31;67034;43.226;27.932;2023-02-24T05:07:54;4.70;84.06
77839;SHT31;67034;43.226;27.932;2023-02-24T05:10:21;4.74;83.70
77839;SHT31;67034;43.226;27.932;2023-02-24T05:12:52;4.76;83.56
77839;SHT31;67034;43.226;27.932;2023-02-24T05:15:19;4.85;83.17
77839;SHT31;67034;43.226;27.932;2023-02-24T05:17:45;4.87;83.30
77839;SHT31;67034;43.226;27.932;2023-02-24T05:20:11;4.84;83.56
77839;SHT31;67034;43.226;27.932;2023-02-24T05:22:55;4.90;83.60
77839;SHT31;67034;43.226;27.932;2023-02-24T05:25:21;4.92;83.49
77839;SHT31;67034;43.226;27.932;2023-02-24T05:27:50;4.98;83.38
77839;SHT31;67034;43.226;27.932;2023-02-24T05:30:15;5.01;83.24
77839;SHT31;67034;43.226;27.932;2023-02-24T05:32:45;5.08;83.23
77839;SHT31;67034;43.226;27.932;2023-02-24T05:35:11;5.27;82.45
77839;SHT31;67034;43.226;27.932;2023-02-24T05:37:37;5.50;81.63
77839;SHT31;67034;43.226;27.932;2023-02-24T05:40:10;5.63;81.35
77839;SHT31;67034;43.226;27.932;2023-02-24T05:42:38;5.76;80.91
77839;SHT31;67034;43.226;27.932;2023-02-24T05:45:06;5.85;80.35
77839;SHT31;67034;43.226;27.932;2023-02-24T05:47:32;5.97;80.43
77839;SHT31;67034;43.226;27.932;2023-02-24T05:49:59;6.00;80.36
77839;SHT31;67034;43.226;27.932;2023-02-24T05:52:24;5.97;80.63
77839;SHT31;67034;43.226;27.932;2023-02-24T05:54:50;6.22;79.13
77839;SHT31;67034;43.226;27.932;2023-02-24T05:57:18;6.32;79.20
77839;SHT31;67034;43.226;27.932;2023-02-24T05:59:47;6.52;78.61
77839;SHT31;67034;43.226;27.932;2023-02-24T06:02:16;6.62;78.31
77839;SHT31;67034;43.226;27.932;2023-02-24T06:04:44;6.75;77.60
77839;SHT31;67034;43.226;27.932;2023-02-24T06:07:16;6.80;77.77
77839;SHT31;67034;43.226;27.932;2023-02-24T06:09:43;6.87;77.11
77839;SHT31;67034;43.226;27.932;2023-02-24T06:12:09;6.89;77.37
77839;SHT31;67034;43.226;27.932;2023-02-24T06:14:35;7.01;77.02
77839;SHT31;67034;43.226;27.932;2023-02-24T06:17:01;7.11;77.08
77839;SHT31;67034;43.226;27.932;2023-02-24T06:19:27;7.07;76.75
77839;SHT31;67034;43.226;27.932;2023-02-24T06:21:57;7.14;76.64
77839;SHT31;67034;43.226;27.932;2023-02-24T06:24:28;7.17;76.78
77839;SHT31;67034;43.226;27.932;2023-02-24T06:26:54;7.08;77.03
77839;SHT31;67034;43.226;27.932;2023-02-24T06:29:27;7.17;77.24
77839;SHT31;67034;43.226;27.932;2023-02-24T06:31:54;7.24;77.03
77839;SHT31;67034;43.226;27.932;2023-02-24T06:34:22;7.23;77.49
77839;SHT31;67034;43.226;27.932;2023-02-24T06:36:49;7.28;76.79
77839;SHT31;67034;43.226;27.932;2023-02-24T06:39:14;7.37;76.82
77839;SHT31;67034;43.226;27.932;2023-02-24T06:41:43;7.35;76.84
77839;SHT31;67034;43.226;27.932;2023-02-24T06:44:08;7.35;77.53
77839;SHT31;67034;43.226;27.932;2023-02-24T06:46:34;7.32;77.37
77839;SHT31;67034;43.226;27.932;2023-02-24T06:49:00;7.50;77.27
77839;SHT31;67034;43.226;27.932;2023-02-24T06:51:26;7.47;76.71
77839;SHT31;67034;43.226;27.932;2023-02-24T06:53:55;7.50;76.88
77839;SHT31;67034;43.226;27.932;2023-02-24T06:56:22;7.41;77.14
77839;SHT31;67034;43.226;27.932;2023-02-24T06:58:50;7.58;76.80
77839;SHT31;67034;43.226;27.932;2023-02-24T07:01:18;7.64;76.98
77839;SHT31;67034;43.226;27.932;2023-02-24T07:03:47;7.81;76.33
77839;SHT31;67034;43.226;27.932;2023-02-24T07:06:33;7.92;75.67
77839;SHT31;67034;43.226;27.932;2023-02-24T07:09:00;7.85;75.93
77839;SHT31;67034;43.226;27.932;2023-02-24T07:11:27;7.79;76.20
77839;SHT31;67034;43.226;27.932;2023-02-24T07:13:54;7.86;76.42
77839;SHT31;67034;43.226;27.932;2023-02-24T07:16:22;7.85;76.16
77839;SHT31;67034;43.226;27.932;2023-02-24T07:18:53;7.89;75.90
77839;SHT31;67034;43.226;27.932;2023-02-24T07:21:21;7.78;76.29
77839;SHT31;67034;43.226;27.932;2023-02-24T07:23:48;7.78;76.56
77839;SHT31;67034;43.226;27.932;2023-02-24T07:26:17;7.78;76.64
77839;SHT31;67034;43.226;27.932;2023-02-24T07:28:44;7.72;77.07
77839;SHT31;67034;43.226;27.932;2023-02-24T07:31:16;7.81;76.50
77839;SHT31;67034;43.226;27.932;2023-02-24T07:33:45;7.83;76.57
77839;SHT31;67034;43.226;27.932;2023-02-24T07:36:12;7.82;76.36
77839;SHT31;67034;43.226;27.932;2023-02-24T07:38:48;7.83;76.45
77839;SHT31;67034;43.226;27.932;2023-02-24T07:41:14;7.89;76.52
77839;SHT31;67034;43.226;27.932;2023-02-24T07:43:42;7.85;76.43
77839;SHT31;67034;43.226;27.932;2023-02-24T07:46:09;7.75;76.87
77839;SHT31;67034;43.226;27.932;2023-02-24T07:48:38;7.71;76.93
77839;SHT31;67034;43.226;27.932;2023-02-24T07:51:05;7.62;77.53
77839;SHT31;67034;43.226;27.932;2023-02-24T07:53:31;7.48;77.97
77839;SHT31;67034;43.226;27.932;2023-02-24T07:55:57;7.59;77.99
77839;SHT31;67034;43.226;27.932;2023-02-24T07:58:23;7.61;77.87
77839;SHT31;67034;43.226;27.932;2023-02-24T08:00:49;7.69;77.62
77839;SHT31;67034;43.226;27.932;2023-02-24T08:03:25;7.76;77.64
77839;SHT31;67034;43.226;27.932;2023-02-24T08:05:56;7.87;77.64
77839;SHT31;67034;43.226;27.932;2023-02-24T08:08:24;8.00;76.85
77839;SHT31;67034;43.226;27.932;2023-02-24T08:10:50;7.97;76.76
77839;SHT31;67034;43.226;27.932;2023-02-24T08:13:25;7.99;77.09
77839;SHT31;67034;43.226;27.932;2023-02-24T08:15:54;8.03;76.64
77839;SHT31;67034;43.226;27.932;2023-02-24T08:18:22;7.97;77.21
77839;SHT31;67034;43.226;27.932;2023-02-24T08:20:47;8.14;76.44
77839;SHT31;67034;43.226;27.932;2023-02-24T08:23:18;8.07;76.89
77839;SHT31;67034;43.226;27.932;2023-02-24T08:25:44;8.05;76.54
77839;SHT31;67034;43.226;27.932;2023-02-24T08:28:10;7.95;76.87
77839;SHT31;67034;43.226;27.932;2023-02-24T08:30:36;8.07;76.40
77839;SHT31;67034;43.226;27.932;2023-02-24T08:33:08;8.24;76.11
77839;SHT31;67034;43.226;27.932;2023-02-24T08:35:38;8.23;75.76
77839;SHT31;67034;43.226;27.932;2023-02-24T08:38:05;8.26;75.56
77839;SHT31;67034;43.226;27.932;2023-02-24T08:40:35;8.32;75.52
77839;SHT31;67034;43.226;27.932;2023-02-24T08:43:04;8.16;76.20
77839;SHT31;67034;43.226;27.932;2023-02-24T08:45:53;8.32;76.15
77839;SHT31;67034;43.226;27.932;2023-02-24T08:48:25;8.44;75.54
77839;SHT31;67034;43.226;27.932;2023-02-24T08:51:00;8.32;75.90
77839;SHT31;67034;43.226;27.932;2023-02-24T08:53:27;8.16;76.21
77839;SHT31;67034;43.226;27.932;2023-02-24T08:55:59;8.26;75.69
77839;SHT31;67034;43.226;27.932;2023-02-24T08:58:34;8.33;76.13
77839;SHT31;67034;43.226;27.932;2023-02-24T09:00:59;8.38;75.17
77839;SHT31;67034;43.226;27.932;2023-02-24T09:03:29;8.36;75.71
77839;SHT31;67034;43.226;27.932;2023-02-24T09:08:25;8.44;75.40
77839;SHT31;67034;43.226;27.932;2023-02-24T09:10:59;8.74;74.51
77839;SHT31;67034;43.226;27.932;2023-02-24T09:13:25;8.92;73.67
77839;SHT31;67034;43.226;27.932;2023-02-24T09:15:58;8.88;73.90
77839;SHT31;67034;43.226;27.932;2023-02-24T09:18:24;8.91;74.02
77839;SHT31;67034;43.226;27.932;2023-02-24T09:20:55;9.15;72.86
77839;SHT31;67034;43.226;27.932;2023-02-24T09:23:21;9.26;72.70
77839;SHT31;67034;43.226;27.932;2023-02-24T09:25:54;9.27;71.98
77839;SHT31;67034;43.226;27.932;2023-02-24T09:28:23;9.32;72.18
77839;SHT31;67034;43.226;27.932;2023-02-24T09:30:51;9.23;71.76
77839;SHT31;67034;43.226;27.932;2023-02-24T09:33:22;9.06;72.38
77839;SHT31;67034;43.226;27.932;2023-02-24T09:35:54;9.02;73.07
77839;SHT31;67034;43.226;27.932;2023-02-24T09:38:38;9.02;72.56
77839;SHT31;67034;43.226;27.932;2023-02-24T09:41:33;9.08;73.00
77839;SHT31;67034;43.226;27.932;2023-02-24T09:44:26;9.08;73.33
77839;SHT31;67034;43.226;27.932;2023-02-24T09:46:57;8.96;72.75
77839;SHT31;67034;43.226;27.932;2023-02-24T09:49:28;9.05;72.96
77839;SHT31;67034;43.226;27.932;2023-02-24T09:52:07;9.24;72.90
77839;SHT31;67034;43.226;27.932;2023-02-24T09:54:41;9.19;72.92
77839;SHT31;67034;43.226;27.932;2023-02-24T09:57:22;9.08;73.03
77839;SHT31;67034;43.226;27.932;2023-02-24T09:59:52;8.82;74.23
77839;SHT31;67034;43.226;27.932;2023-02-24T10:02:40;8.92;73.80
77839;SHT31;67034;43.226;27.932;2023-02-24T10:05:16;8.91;74.05
77839;SHT31;67034;43.226;27.932;2023-02-24T10:07:45;8.74;74.01
77839;SHT31;67034;43.226;27.932;2023-02-24T10:10:15;8.85;73.35
77839;SHT31;67034;43.226;27.932;2023-02-24T10:12:48;9.16;73.34
77839;SHT31;67034;43.226;27.932;2023-02-24T10:15:20;9.22;72.64
77839;SHT31;67034;43.226;27.932;2023-02-24T10:18:22;9.09;73.04
77839;SHT31;67034;43.226;27.932;2023-02-24T10:20:57;9.40;72.74
77839;SHT31;67034;43.226;27.932;2023-02-24T10:23:28;9.20;71.95
77839;SHT31;67034;43.226;27.932;2023-02-24T10:26:03;9.51;72.10
77839;SHT31;67034;43.226;27.932;2023-02-24T10:28:35;9.74;71.65
77839;SHT31;67034;43.226;27.932;2023-02-24T10:31:10;9.78;71.51
77839;SHT31;67034;43.226;27.932;2023-02-24T10:33:50;9.98;70.74
77839;SHT31;67034;43.226;27.932;2023-02-24T10:36:19;10.23;69.45
77839;SHT31;67034;43.226;27.932;2023-02-24T10:38:50;10.15;69.16
77839;SHT31;67034;43.226;27.932;2023-02-24T10:41:20;10.11;69.94
77839;SHT31;67034;43.226;27.932;2023-02-24T10:43:55;10.06;70.31
77839;SHT31;67034;43.226;27.932;2023-02-24T10:46:25;10.60;68.50
77839;SHT31;67034;43.226;27.932;2023-02-24T10:48:59;10.96;66.77
77839;SHT31;67034;43.226;27.932;2023-02-24T10:51:28;11.07;66.65
77839;SHT31;67034;43.226;27.932;2023-02-24T10:54:11;10.85;67.10
77839;SHT31;67034;43.226;27.932;2023-02-24T10:56:50;10.93;66.99
77839;SHT31;67034;43.226;27.932;2023-02-24T10:59:41;11.01;65.83
77839;SHT31;67034;43.226;27.932;2023-02-24T11:02:25;10.79;66.95
77839;SHT31;67034;43.226;27.932;2023-02-24T11:04:58;10.91;67.14
77839;SHT31;67034;43.226;27.932;2023-02-24T11:07:24;10.87;66.46
77839;SHT31;67034;43.226;27.932;2023-02-24T11:10:03;11.39;65.84
77839;SHT31;67034;43.226;27.932;2023-02-24T11:12:37;11.43;65.12
77839;SHT31;67034;43.226;27.932;2023-02-24T11:15:29;11.56;64.32
77839;SHT31;67034;43.226;27.932;2023-02-24T11:18:17;11.38;64.51
77839;SHT31;67034;43.226;27.932;2023-02-24T11:20:46;10.88;66.12
77839;SHT31;67034;43.226;27.932;2023-02-24T11:23:14;10.36;67.23
77839;SHT31;67034;43.226;27.932;2023-02-24T11:25:42;9.87;69.05
77839;SHT31;67034;43.226;27.932;2023-02-24T11:28:24;9.51;70.68
77839;SHT31;67034;43.226;27.932;2023-02-24T11:30:54;9.42;71.90
77839;SHT31;67034;43.226;27.932;2023-02-24T11:33:28;9.48;71.46
77839;SHT31;67034;43.226;27.932;2023-02-24T11:36:02;9.26;72.59
77839;SHT31;67034;43.226;27.932;2023-02-24T11:38:38;9.24;72.32
77839;SHT31;67034;43.226;27.932;2023-02-24T11:41:10;9.03;73.39
77839;SHT31;67034;43.226;27.932;2023-02-24T11:43:39;9.19;73.19
77839;SHT31;67034;43.226;27.932;2023-02-24T11:46:11;9.32;73.05
77839;SHT31;67034;43.226;27.932;2023-02-24T11:48:44;9.48;71.82
77839;SHT31;67034;43.226;27.932;2023-02-24T11:51:13;9.24;72.81
77839;SHT31;67034;43.226;27.932;2023-02-24T11:53:46;9.40;72.27
77839;SHT31;67034;43.226;27.932;2023-02-24T11:56:15;9.29;72.51
77839;SHT31;67034;43.226;27.932;2023-02-24T11:58:49;9.19;73.44
77839;SHT31;67034;43.226;27.932;2023-02-24T12:01:19;9.48;72.73
77839;SHT31;67034;43.226;27.932;2023-02-24T12:03:57;9.77;71.67
77839;SHT31;67034;43.226;27.932;2023-02-24T12:06:29;9.88;71.04
77839;SHT31;67034;43.226;27.932;2023-02-24T12:08:58;9.88;70.95
77839;SHT31;67034;43.226;27.932;2023-02-24T12:11:33;10.01;70.37
77839;SHT31;67034;43.226;27.932;2023-02-24T12:14:12;9.95;70.17
77839;SHT31;67034;43.226;27.932;2023-02-24T12:16:43;10.12;70.19
77839;SHT31;67034;43.226;27.932;2023-02-24T12:19:14;10.32;70.68
77839;SHT31;67034;43.226;27.932;2023-02-24T12:21:48;10.88;67.41
77839;SHT31;67034;43.226;27.932;2023-02-24T12:24:16;11.07;66.88
77839;SHT31;67034;43.226;27.932;2023-02-24T12:26:49;10.42;68.30
77839;SHT31;67034;43.226;27.932;2023-02-24T12:29:30;10.39;69.08
77839;SHT31;67034;43.226;27.932;2023-02-24T12:32:03;10.71;68.49
77839;SHT31;67034;43.226;27.932;2023-02-24T12:34:44;11.52;65.84
77839;SHT31;67034;43.226;27.932;2023-02-24T12:37:32;11.35;65.59
77839;SHT31;67034;43.226;27.932;2023-02-24T12:40:11;11.24;66.15
77839;SHT31;67034;43.226;27.932;2023-02-24T12:42:44;11.46;66.02
77839;SHT31;67034;43.226;27.932;2023-02-24T12:45:16;11.82;64.61
77839;SHT31;67034;43.226;27.932;2023-02-24T12:47:52;12.04;64.07
77839;SHT31;67034;43.226;27.932;2023-02-24T12:50:28;11.77;63.88
77839;SHT31;67034;43.226;27.932;2023-02-24T12:53:04;12.25;63.16
77839;SHT31;67034;43.226;27.932;2023-02-24T12:55:41;12.20;63.04
77839;SHT31;67034;43.226;27.932;2023-02-24T12:58:11;12.48;61.82
77839;SHT31;67034;43.226;27.932;2023-02-24T13:00:47;12.91;61.03
77839;SHT31;67034;43.226;27.932;2023-02-24T13:03:25;13.19;59.92
77839;SHT31;67034;43.226;27.932;2023-02-24T13:06:01;13.17;60.16
77839;SHT31;67034;43.226;27.932;2023-02-24T13:08:37;13.09;59.57
77839;SHT31;67034;43.226;27.932;2023-02-24T13:11:09;12.51;61.20
77839;SHT31;67034;43.226;27.932;2023-02-24T13:13:43;12.14;62.66
77839;SHT31;67034;43.226;27.932;2023-02-24T13:16:13;12.06;63.25
77839;SHT31;67034;43.226;27.932;2023-02-24T13:18:39;11.69;64.36
77839;SHT31;67034;43.226;27.932;2023-02-24T13:21:17;12.34;63.45
77839;SHT31;67034;43.226;27.932;2023-02-24T13:23:52;12.71;61.43
77839;SHT31;67034;43.226;27.932;2023-02-24T13:26:21;12.08;62.59
77839;SHT31;67034;43.226;27.932;2023-02-24T13:28:57;11.51;64.66
77839;SHT31;67034;43.226;27.932;2023-02-24T13:31:24;11.22;65.76
77839;SHT31;67034;43.226;27.932;2023-02-24T13:33:51;11.61;65.42
77839;SHT31;67034;43.226;27.932;2023-02-24T13:36:20;12.23;63.84
77839;SHT31;67034;43.226;27.932;2023-02-24T13:38:47;12.75;61.46
77839;SHT31;67034;43.226;27.932;2023-02-24T13:41:23;12.79;61.71
77839;SHT31;67034;43.226;27.932;2023-02-24T13:43:59;12.37;61.54
77839;SHT31;67034;43.226;27.932;2023-02-24T13:46:28;12.16;62.74
77839;SHT31;67034;43.226;27.932;2023-02-24T13:49:21;11.24;65.90
77839;SHT31;67034;43.226;27.932;2023-02-24T13:51:57;10.90;66.71
77839;SHT31;67034;43.226;27.932;2023-02-24T13:57:50;10.98;67.62
77839;SHT31;67034;43.226;27.932;2023-02-24T14:00:26;11.06;67.39
77839;SHT31;67034;43.226;27.932;2023-02-24T14:02:53;11.08;66.90
77839;SHT31;67034;43.226;27.932;2023-02-24T14:05:23;10.87;67.93
77839;SHT31;67034;43.226;27.932;2023-02-24T14:07:52;10.42;69.23
77839;SHT31;67034;43.226;27.932;2023-02-24T14:10:20;9.74;71.68
77839;SHT31;67034;43.226;27.932;2023-02-24T14:12:48;9.70;72.34
77839;SHT31;67034;43.226;27.932;2023-02-24T14:15:16;9.30;73.79
77839;SHT31;67034;43.226;27.932;2023-02-24T14:17:54;8.92;75.09
77839;SHT31;67034;43.226;27.932;2023-02-24T14:20:21;8.84;75.76
77839;SHT31;67034;43.226;27.932;2023-02-24T14:22:52;9.06;75.30
77839;SHT31;67034;43.226;27.932;2023-02-24T14:25:18;9.13;74.87
77839;SHT31;67034;43.226;27.932;2023-02-24T14:27:48;9.09;74.98
77839;SHT31;67034;43.226;27.932;2023-02-24T14:30:23;8.92;75.49
77839;SHT31;67034;43.226;27.932;2023-02-24T14:32:49;8.84;76.15
77839;SHT31;67034;43.226;27.932;2023-02-24T14:35:20;9.02;75.62
77839;SHT31;67034;43.226;27.932;2023-02-24T14:37:48;8.76;76.04
77839;SHT31;67034;43.226;27.932;2023-02-24T14:40:15;8.69;76.42
77839;SHT31;67034;43.226;27.932;2023-02-24T14:42:45;8.64;76.72
77839;SHT31;67034;43.226;27.932;2023-02-24T14:45:15;8.51;76.81
77839;SHT31;67034;43.226;27.932;2023-02-24T14:47:41;8.61;76.69
77839;SHT31;67034;43.226;27.932;2023-02-24T14:50:14;8.60;77.07
77839;SHT31;67034;43.226;27.932;2023-02-24T14:52:43;8.64;76.98
77839;SHT31;67034;43.226;27.932;2023-02-24T14:55:16;8.78;76.48
77839;SHT31;67034;43.226;27.932;2023-02-24T14:57:48;8.79;76.46
77839;SHT31;67034;43.226;27.932;2023-02-24T15:00:19;8.55;76.95
77839;SHT31;67034;43.226;27.932;2023-02-24T15:02:52;8.58;77.30
77839;SHT31;67034;43.226;27.932;2023-02-24T15:05:20;8.63;77.12
77839;SHT31;67034;43.226;27.932;2023-02-24T15:07:46;8.72;77.12
77839;SHT31;67034;43.226;27.932;2023-02-24T15:10:22;8.75;76.78
77839;SHT31;67034;43.226;27.932;2023-02-24T15:12:51;8.61;77.41
77839;SHT31;67034;43.226;27.932;2023-02-24T15:15:20;8.57;77.85
77839;SHT31;67034;43.226;27.932;2023-02-24T15:17:48;8.54;77.72
77839;SHT31;67034;43.226;27.932;2023-02-24T15:20:29;8.41;78.03
77839;SHT31;67034;43.226;27.932;2023-02-24T15:22:55;8.33;78.51
77839;SHT31;67034;43.226;27.932;2023-02-24T15:25:24;8.32;78.76
77839;SHT31;67034;43.226;27.932;2023-02-24T15:27:52;8.37;78.64
77839;SHT31;67034;43.226;27.932;2023-02-24T15:30:28;8.38;78.35
77839;SHT31;67034;43.226;27.932;2023-02-24T15:32:59;8.38;78.86
77839;SHT31;67034;43.226;27.932;2023-02-24T15:35:25;8.43;78.56
77839;SHT31;67034;43.226;27.932;2023-02-24T15:37:51;8.38;78.88
77839;SHT31;67034;43.226;27.932;2023-02-24T15:40:23;8.44;78.99
77839;SHT31;67034;43.226;27.932;2023-02-24T15:42:50;8.47;78.84
77839;SHT31;67034;43.226;27.932;2023-02-24T15:45:25;8.54;78.29
77839;SHT31;67034;43.226;27.932;2023-02-24T15:47:53;8.38;78.94
77839;SHT31;67034;43.226;27.932;2023-02-24T15:50:19;8.40;79.10
77839;SHT31;67034;43.226;27.932;2023-02-24T15:52:45;8.16;79.63
77839;SHT31;67034;43.226;27.932;2023-02-24T15:55:14;8.05;80.07
77839;SHT31;67034;43.226;27.932;2023-02-24T15:57:42;8.02;81.86
77839;SHT31;67034;43.226;27.932;2023-02-24T16:00:11;8.06;80.59
77839;SHT31;67034;43.226;27.932;2023-02-24T16:02:38;8.12;80.31